sensor_id;sensor_type;location;lat;lon;timestamp;pressure;altitude;pressure_sealevel;temperature;humidity
58295;BME280;45705;55.592;37.460;2023-08-07T00:00:32;99086.19;;;23.06;94.93
58295;BME280;45705;55.592;37.460;2023-08-07T00:02:58;99089.34;;;23.08;95.16
58295;BME280;45705;55.592;37.460;2023-08-07T00:05:23;99082.22;;;23.07;93.78
58295;BME280;45705;55.592;37.460;2023-08-07T00:07:49;99089.75;;;23.10;94.52
58295;BME280;45705;55.592;37.460;2023-08-07T00:10:15;99091.75;;;23.13;93.92
58295;BME280;45705;55.592;37.460;2023-08-07T00:12:41;99081.03;;;23.12;93.37
58295;BME280;45705;55.592;37.460;2023-08-07T00:15:07;99085.41;;;23.09;93.54
58295;BME280;45705;55.592;37.460;2023-08-07T00:17:33;99082.22;;;23.07;94.65
58295;BME280;45705;55.592;37.460;2023-08-07T00:19:59;99085.78;;;23.04;94.86
58295;BME280;45705;55.592;37.460;2023-08-07T00:22:24;99080.97;;;23.01;94.98
58295;BME280;45705;55.592;37.460;2023-08-07T00:24:51;99093.31;;;23.04;94.71
58295;BME280;45705;55.592;37.460;2023-08-07T00:27:17;99094.88;;;22.97;94.84
58295;BME280;45705;55.592;37.460;2023-08-07T00:29:44;99088.50;;;22.93;95.43
58295;BME280;45705;55.592;37.460;2023-08-07T00:32:09;99082.16;;;22.93;96.64
58295;BME280;45705;55.592;37.460;2023-08-07T00:34:35;99085.34;;;22.95;96.59
58295;BME280;45705;55.592;37.460;2023-08-07T00:37:01;99077.00;;;22.91;96.13
58295;BME280;45705;55.592;37.460;2023-08-07T00:39:27;99085.31;;;22.80;96.39
58295;BME280;45705;55.592;37.460;2023-08-07T00:41:54;99077.41;;;22.83;96.66
58295;BME280;45705;55.592;37.460;2023-08-07T00:44:20;99077.78;;;22.77;97.29
58295;BME280;45705;55.592;37.460;2023-08-07T00:46:46;99078.94;;;22.69;98.43
58295;BME280;45705;55.592;37.460;2023-08-07T00:49:12;99078.94;;;22.66;98.84
58295;BME280;45705;55.592;37.460;2023-08-07T00:51:39;99081.28;;;22.60;99.04
58295;BME280;45705;55.592;37.460;2023-08-07T00:54:06;99080.50;;;22.56;100.00
58295;BME280;45705;55.592;37.460;2023-08-07T00:56:33;99081.25;;;22.46;100.00
58295;BME280;45705;55.592;37.460;2023-08-07T00:59:00;99079.25;;;22.42;100.00
58295;BME280;45705;55.592;37.460;2023-08-07T01:01:27;99079.59;;;22.30;100.00
58295;BME280;45705;55.592;37.460;2023-08-07T01:03:53;99082.31;;;22.23;100.00
58295;BME280;45705;55.592;37.460;2023-08-07T01:06:19;99079.19;;;22.25;100.00
58295;BME280;45705;55.592;37.460;2023-08-07T01:08:45;99075.53;;;22.13;100.00
58295;BME280;45705;55.592;37.460;2023-08-07T01:16:33;99067.53;;;21.97;100.00
58295;BME280;45705;55.592;37.460;2023-08-07T01:19:01;99058.81;;;21.92;100.00
58295;BME280;45705;55.592;37.460;2023-08-07T01:21:28;99068.31;;;21.94;100.00
58295;BME280;45705;55.592;37.460;2023-08-07T01:23:54;99067.53;;;21.97;100.00
58295;BME280;45705;55.592;37.460;2023-08-07T01:26:20;99066.72;;;21.90;100.00
58295;BME280;45705;55.592;37.460;2023-08-07T01:31:52;99061.91;;;21.79;100.00
58295;BME280;45705;55.592;37.460;2023-08-07T01:34:20;99067.44;;;21.76;100.00
58295;BME280;45705;55.592;37.460;2023-08-07T01:36:48;99054.72;;;21.68;100.00
58295;BME280;45705;55.592;37.460;2023-08-07T01:39:15;99050.75;;;21.69;100.00
58295;BME280;45705;55.592;37.460;2023-08-07T01:41:42;99060.25;;;21.68;100.00
58295;BME280;45705;55.592;37.460;2023-08-07T01:44:08;99049.53;;;21.62;100.00
58295;BME280;45705;55.592;37.460;2023-08-07T01:46:33;99055.91;;;21.67;100.00
58295;BME280;45705;55.592;37.460;2023-08-07T01:48:59;99051.53;;;21.62;100.00
58295;BME280;45705;55.592;37.460;2023-08-07T01:51:25;99043.59;;;21.60;100.00
58295;BME280;45705;55.592;37.460;2023-08-07T01:53:51;99045.19;;;21.58;100.00
58295;BME280;45705;55.592;37.460;2023-08-07T01:56:17;99040.47;;;21.62;100.00
58295;BME280;45705;55.592;37.460;2023-08-07T01:58:42;99045.19;;;21.58;100.00
58295;BME280;45705;55.592;37.460;2023-08-07T02:01:08;99037.59;;;21.51;100.00
58295;BME280;45705;55.592;37.460;2023-08-07T02:03:34;99049.94;;;21.61;100.00
58295;BME280;45705;55.592;37.460;2023-08-07T02:06:00;99051.50;;;21.58;100.00
58295;BME280;45705;55.592;37.460;2023-08-07T02:08:27;99046.78;;;21.62;100.00
58295;BME280;45705;55.592;37.460;2023-08-07T02:10:53;99046.78;;;21.62;100.00
58295;BME280;45705;55.592;37.460;2023-08-07T02:13:20;99037.25;;;21.56;100.00
58295;BME280;45705;55.592;37.460;2023-08-07T02:15:49;99048.31;;;21.56;100.00
58295;BME280;45705;55.592;37.460;2023-08-07T02:18:14;99047.50;;;21.52;100.00
58295;BME280;45705;55.592;37.460;2023-08-07T02:20:40;99041.97;;;21.52;100.00
58295;BME280;45705;55.592;37.460;2023-08-07T02:23:06;99039.59;;;21.51;100.00
58295;BME280;45705;55.592;37.460;2023-08-07T02:25:32;99044.38;;;21.57;100.00
58295;BME280;45705;55.592;37.460;2023-08-07T02:27:58;99022.88;;;21.40;100.00
58295;BME280;45705;55.592;37.460;2023-08-07T02:30:24;99039.56;;;21.47;100.00
58295;BME280;45705;55.592;37.460;2023-08-07T02:32:50;99038.81;;;21.50;100.00
58295;BME280;45705;55.592;37.460;2023-08-07T02:35:15;99043.97;;;21.55;100.00
58295;BME280;45705;55.592;37.460;2023-08-07T02:37:41;99046.72;;;21.55;100.00
58295;BME280;45705;55.592;37.460;2023-08-07T02:40:08;99047.91;;;21.54;100.00
58295;BME280;45705;55.592;37.460;2023-08-07T02:42:34;99042.78;;;21.56;100.00
58295;BME280;45705;55.592;37.460;2023-08-07T02:45:00;99035.25;;;21.53;100.00
58295;BME280;45705;55.592;37.460;2023-08-07T02:47:26;99041.56;;;21.54;100.00
58295;BME280;45705;55.592;37.460;2023-08-07T02:49:51;99035.31;;;21.60;100.00
58295;BME280;45705;55.592;37.460;2023-08-07T02:52:17;99044.41;;;21.65;100.00
58295;BME280;45705;55.592;37.460;2023-08-07T02:54:43;99051.56;;;21.73;100.00
58295;BME280;45705;55.592;37.460;2023-08-07T02:57:09;99050.75;;;21.69;100.00
58295;BME280;45705;55.592;37.460;2023-08-07T02:59:34;99038.97;;;21.79;100.00
58295;BME280;45705;55.592;37.460;2023-08-07T03:02:00;99040.56;;;21.80;100.00
58295;BME280;45705;55.592;37.460;2023-08-07T03:04:26;99039.00;;;21.86;100.00
58295;BME280;45705;55.592;37.460;2023-08-07T03:06:55;99043.81;;;21.96;100.00
58295;BME280;45705;55.592;37.460;2023-08-07T03:09:21;99039.88;;;21.97;100.00
58295;BME280;45705;55.592;37.460;2023-08-07T03:11:47;99036.75;;;22.10;100.00
58295;BME280;45705;55.592;37.460;2023-08-07T03:14:13;99043.97;;;22.25;100.00
58295;BME280;45705;55.592;37.460;2023-08-07T03:16:39;99042.41;;;22.28;100.00
58295;BME280;45705;55.592;37.460;2023-08-07T03:19:04;99034.50;;;22.26;100.00
58295;BME280;45705;55.592;37.460;2023-08-07T03:21:30;99042.03;;;22.36;100.00
58295;BME280;45705;55.592;37.460;2023-08-07T03:23:56;99040.09;;;22.44;99.98
58295;BME280;45705;55.592;37.460;2023-08-07T03:26:22;99030.63;;;22.56;99.43
58295;BME280;45705;55.592;37.460;2023-08-07T03:28:48;99028.25;;;22.65;97.31
58295;BME280;45705;55.592;37.460;2023-08-07T03:31:15;99033.03;;;22.68;96.47
58295;BME280;45705;55.592;37.460;2023-08-07T03:33:40;99038.56;;;22.75;95.78
58295;BME280;45705;55.592;37.460;2023-08-07T03:36:08;99025.56;;;23.08;94.16
58295;BME280;45705;55.592;37.460;2023-08-07T03:38:34;99026.75;;;23.39;90.73
58295;BME280;45705;55.592;37.460;2023-08-07T03:41:01;99037.69;;;24.15;84.07
58295;BME280;45705;55.592;37.460;2023-08-07T03:43:28;99038.22;;;24.73;80.17
58295;BME280;45705;55.592;37.460;2023-08-07T03:45:55;99022.28;;;24.84;77.15
58295;BME280;45705;55.592;37.460;2023-08-07T03:48:24;99037.06;;;25.71;73.23
58295;BME280;45705;55.592;37.460;2023-08-07T03:50:50;99030.97;;;26.18;69.16
58295;BME280;45705;55.592;37.460;2023-08-07T03:53:17;99029.28;;;25.93;68.48
58295;BME280;45705;55.592;37.460;2023-08-07T03:55:49;99034.13;;;26.20;67.90
58295;BME280;45705;55.592;37.460;2023-08-07T03:58:15;99031.91;;;26.39;66.81
58295;BME280;45705;55.592;37.460;2023-08-07T04:00:40;99027.41;;;27.30;63.08
58295;BME280;45705;55.592;37.460;2023-08-07T04:03:06;99023.38;;;27.55;61.35
58295;BME280;45705;55.592;37.460;2023-08-07T04:05:33;99023.41;;;27.31;61.61
58295;BME280;45705;55.592;37.460;2023-08-07T04:07:59;99028.09;;;27.10;63.35
58295;BME280;45705;55.592;37.460;2023-08-07T04:10:25;99021.41;;;27.04;62.47
58295;BME280;45705;55.592;37.460;2023-08-07T04:12:51;99024.47;;;27.61;59.09
58295;BME280;45705;55.592;37.460;2023-08-07T04:15:17;99024.06;;;27.82;57.64
58295;BME280;45705;55.592;37.460;2023-08-07T04:17:43;99023.72;;;27.57;59.33
58295;BME280;45705;55.592;37.460;2023-08-07T04:20:09;99020.59;;;27.55;59.94
58295;BME280;45705;55.592;37.460;2023-08-07T04:22:36;99014.34;;;28.11;56.77
58295;BME280;45705;55.592;37.460;2023-08-07T04:25:02;99016.34;;;28.10;56.04
58295;BME280;45705;55.592;37.460;2023-08-07T04:27:29;99013.25;;;28.24;54.86
58295;BME280;45705;55.592;37.460;2023-08-07T04:29:55;99011.91;;;28.69;53.74
58295;BME280;45705;55.592;37.460;2023-08-07T04:32:23;99014.31;;;28.87;52.04
58295;BME280;45705;55.592;37.460;2023-08-07T04:34:48;99004.94;;;28.94;52.10
58295;BME280;45705;55.592;37.460;2023-08-07T04:37:14;99014.91;;;29.11;51.75
58295;BME280;45705;55.592;37.460;2023-08-07T04:39:40;99007.50;;;29.37;50.48
58295;BME280;45705;55.592;37.460;2023-08-07T04:42:06;99004.63;;;29.54;50.04
58295;BME280;45705;55.592;37.460;2023-08-07T04:44:32;99008.81;;;29.62;50.06
58295;BME280;45705;55.592;37.460;2023-08-07T04:46:57;99007.78;;;29.72;49.50
58295;BME280;45705;55.592;37.460;2023-08-07T04:49:23;99003.44;;;30.13;48.31
58295;BME280;45705;55.592;37.460;2023-08-07T04:51:49;99008.34;;;30.09;48.49
58295;BME280;45705;55.592;37.460;2023-08-07T04:54:15;99010.72;;;30.23;48.13
58295;BME280;45705;55.592;37.460;2023-08-07T04:56:40;99014.59;;;30.42;47.33
58295;BME280;45705;55.592;37.460;2023-08-07T04:59:10;99009.94;;;31.38;44.65
58295;BME280;45705;55.592;37.460;2023-08-07T05:01:36;99007.66;;;31.59;44.08
58295;BME280;45705;55.592;37.460;2023-08-07T05:04:01;99005.09;;;30.91;45.37
58295;BME280;45705;55.592;37.460;2023-08-07T05:06:27;99009.94;;;31.73;42.98
58295;BME280;45705;55.592;37.460;2023-08-07T05:08:53;99004.97;;;31.77;41.97
58295;BME280;45705;55.592;37.460;2023-08-07T05:11:19;99004.09;;;31.46;42.86
58295;BME280;45705;55.592;37.460;2023-08-07T05:13:45;99001.25;;;31.58;44.29
58295;BME280;45705;55.592;37.460;2023-08-07T05:16:11;99006.94;;;31.68;43.34
58295;BME280;45705;55.592;37.460;2023-08-07T05:18:37;98996.41;;;32.25;40.56
58295;BME280;45705;55.592;37.460;2023-08-07T05:21:03;98994.94;;;32.43;41.65
58295;BME280;45705;55.592;37.460;2023-08-07T05:23:28;98990.84;;;32.66;40.13
58295;BME280;45705;55.592;37.460;2023-08-07T05:25:54;98988.56;;;32.92;39.41
58295;BME280;45705;55.592;37.460;2023-08-07T05:28:20;98983.13;;;33.07;38.60
58295;BME280;45705;55.592;37.460;2023-08-07T05:30:45;98985.13;;;32.88;38.59
58295;BME280;45705;55.592;37.460;2023-08-07T05:33:11;98980.47;;;32.00;41.42
58295;BME280;45705;55.592;37.460;2023-08-07T05:35:40;98980.72;;;31.93;40.85
58295;BME280;45705;55.592;37.460;2023-08-07T05:38:06;98979.41;;;32.29;40.92
58295;BME280;45705;55.592;37.460;2023-08-07T05:40:31;98974.13;;;33.21;39.09
58295;BME280;45705;55.592;37.460;2023-08-07T05:42:57;98972.69;;;32.58;39.71
58295;BME280;45705;55.592;37.460;2023-08-07T05:45:23;98965.47;;;32.56;39.14
58295;BME280;45705;55.592;37.460;2023-08-07T05:47:49;98983.84;;;33.39;37.64
58295;BME280;45705;55.592;37.460;2023-08-07T05:50:15;98979.09;;;33.17;38.18
58295;BME280;45705;55.592;37.460;2023-08-07T05:52:40;98960.25;;;34.34;36.70
58295;BME280;45705;55.592;37.460;2023-08-07T05:55:06;98967.97;;;34.24;36.22
58295;BME280;45705;55.592;37.460;2023-08-07T05:57:34;98957.41;;;34.43;35.98
58295;BME280;45705;55.592;37.460;2023-08-07T06:00:00;98955.78;;;35.09;35.08
58295;BME280;45705;55.592;37.460;2023-08-07T06:02:38;98959.22;;;35.13;34.35
58295;BME280;45705;55.592;37.460;2023-08-07T06:05:04;98953.38;;;34.93;35.22
58295;BME280;45705;55.592;37.460;2023-08-07T06:07:30;98957.63;;;35.60;35.13
58295;BME280;45705;55.592;37.460;2023-08-07T06:09:56;98959.84;;;34.50;34.57
58295;BME280;45705;55.592;37.460;2023-08-07T06:12:22;98967.19;;;34.05;35.11
58295;BME280;45705;55.592;37.460;2023-08-07T06:14:48;98946.03;;;34.19;34.81
58295;BME280;45705;55.592;37.460;2023-08-07T06:17:14;98959.81;;;34.26;35.08
58295;BME280;45705;55.592;37.460;2023-08-07T06:19:39;98952.28;;;34.14;36.70
58295;BME280;45705;55.592;37.460;2023-08-07T06:22:05;98974.13;;;33.21;36.68
58295;BME280;45705;55.592;37.460;2023-08-07T06:24:31;98965.50;;;33.15;36.61
58295;BME280;45705;55.592;37.460;2023-08-07T06:26:57;98956.59;;;33.26;37.06
58295;BME280;45705;55.592;37.460;2023-08-07T06:29:22;98982.19;;;33.01;36.96
58295;BME280;45705;55.592;37.460;2023-08-07T06:31:48;98960.66;;;33.62;37.66
58295;BME280;45705;55.592;37.460;2023-08-07T06:34:14;98945.56;;;34.21;34.66
58295;BME280;45705;55.592;37.460;2023-08-07T06:36:39;98953.03;;;34.33;35.58
58295;BME280;45705;55.592;37.460;2023-08-07T06:39:05;98957.16;;;34.89;33.84
58295;BME280;45705;55.592;37.460;2023-08-07T06:41:31;98959.28;;;34.37;34.04
58295;BME280;45705;55.592;37.460;2023-08-07T06:43:57;98953.47;;;34.74;33.50
58295;BME280;45705;55.592;37.460;2023-08-07T06:46:22;98947.66;;;34.44;35.04
58295;BME280;45705;55.592;37.460;2023-08-07T06:48:52;98954.56;;;33.45;36.36
58295;BME280;45705;55.592;37.460;2023-08-07T06:51:18;98957.28;;;32.81;36.59
58295;BME280;45705;55.592;37.460;2023-08-07T06:53:43;98951.38;;;33.06;35.74
58295;BME280;45705;55.592;37.460;2023-08-07T06:56:09;98943.13;;;33.40;35.94
58295;BME280;45705;55.592;37.460;2023-08-07T06:58:35;98954.66;;;34.16;35.05
58295;BME280;45705;55.592;37.460;2023-08-07T07:01:00;98946.56;;;33.62;36.05
58295;BME280;45705;55.592;37.460;2023-08-07T07:03:26;98933.09;;;33.48;35.61
58295;BME280;45705;55.592;37.460;2023-08-07T07:05:52;98947.06;;;32.02;37.69
58295;BME280;45705;55.592;37.460;2023-08-07T07:08:18;98945.66;;;32.29;38.33
58295;BME280;45705;55.592;37.460;2023-08-07T07:10:44;98935.19;;;32.70;36.77
58295;BME280;45705;55.592;37.460;2023-08-07T07:13:09;98938.38;;;32.90;36.54
58295;BME280;45705;55.592;37.460;2023-08-07T07:15:35;98929.03;;;33.67;35.54
58295;BME280;45705;55.592;37.460;2023-08-07T07:18:01;98928.09;;;33.15;36.61
58295;BME280;45705;55.592;37.460;2023-08-07T07:20:28;98928.69;;;33.93;36.57
58295;BME280;45705;55.592;37.460;2023-08-07T07:22:54;98929.91;;;32.90;36.81
58295;BME280;45705;55.592;37.460;2023-08-07T07:25:20;98930.03;;;32.78;36.59
58295;BME280;45705;55.592;37.460;2023-08-07T07:27:45;98935.13;;;32.20;38.11
58295;BME280;45705;55.592;37.460;2023-08-07T07:30:13;98938.13;;;31.72;39.22
58295;BME280;45705;55.592;37.460;2023-08-07T07:32:39;98953.81;;;31.61;39.26
58295;BME280;45705;55.592;37.460;2023-08-07T07:35:04;98965.16;;;31.57;39.11
58295;BME280;45705;55.592;37.460;2023-08-07T07:37:31;98922.06;;;31.03;40.50
58295;BME280;45705;55.592;37.460;2023-08-07T07:39:57;98955.66;;;30.81;39.94
58295;BME280;45705;55.592;37.460;2023-08-07T07:42:23;98924.44;;;30.92;42.86
58295;BME280;45705;55.592;37.460;2023-08-07T07:44:49;98957.78;;;29.54;42.35
58295;BME280;45705;55.592;37.460;2023-08-07T07:47:14;98939.16;;;29.18;45.05
58295;BME280;45705;55.592;37.460;2023-08-07T07:49:46;98951.16;;;28.86;45.80
58295;BME280;45705;55.592;37.460;2023-08-07T07:52:15;98932.25;;;28.57;46.61
58295;BME280;45705;55.592;37.460;2023-08-07T07:54:41;98925.38;;;28.42;46.43
58295;BME280;45705;55.592;37.460;2023-08-07T07:57:07;98932.91;;;28.28;47.03
58295;BME280;45705;55.592;37.460;2023-08-07T07:59:33;98930.25;;;28.21;47.38
58295;BME280;45705;55.592;37.460;2023-08-07T08:01:59;98921.81;;;28.05;47.78
58295;BME280;45705;55.592;37.460;2023-08-07T08:04:25;98914.69;;;28.04;48.59
58295;BME280;45705;55.592;37.460;2023-08-07T08:06:50;98914.81;;;27.97;48.79
58295;BME280;45705;55.592;37.460;2023-08-07T08:09:16;98926.66;;;27.84;49.07
58295;BME280;45705;55.592;37.460;2023-08-07T08:11:42;98914.47;;;27.95;49.66
58295;BME280;45705;55.592;37.460;2023-08-07T08:14:09;98911.31;;;27.93;49.47
58295;BME280;45705;55.592;37.460;2023-08-07T08:16:35;98912.91;;;27.94;50.14
58295;BME280;45705;55.592;37.460;2023-08-07T08:19:00;98919.63;;;27.76;50.12
58295;BME280;45705;55.592;37.460;2023-08-07T08:21:27;98906.44;;;27.97;50.16
58295;BME280;45705;55.592;37.460;2023-08-07T08:23:53;98914.13;;;27.73;50.33
58295;BME280;45705;55.592;37.460;2023-08-07T08:26:19;98913.09;;;27.83;49.55
58295;BME280;45705;55.592;37.460;2023-08-07T08:28:44;98906.16;;;27.71;50.04
58295;BME280;45705;55.592;37.460;2023-08-07T08:31:10;98924.34;;;27.79;50.26
58295;BME280;45705;55.592;37.460;2023-08-07T08:33:36;98896.19;;;27.70;50.88
58295;BME280;45705;55.592;37.460;2023-08-07T08:36:02;98891.44;;;27.87;50.69
58295;BME280;45705;55.592;37.460;2023-08-07T08:38:27;98903.78;;;27.89;50.62
58295;BME280;45705;55.592;37.460;2023-08-07T08:41:01;98872.94;;;27.57;51.00
58295;BME280;45705;55.592;37.460;2023-08-07T08:43:28;98887.66;;;27.77;51.40
58295;BME280;45705;55.592;37.460;2023-08-07T08:46:00;98895.41;;;27.89;51.12
58295;BME280;45705;55.592;37.460;2023-08-07T08:48:27;98912.91;;;27.54;50.35
58295;BME280;45705;55.592;37.460;2023-08-07T08:50:57;98926.28;;;27.42;50.33
58295;BME280;45705;55.592;37.460;2023-08-07T08:53:23;98907.44;;;27.46;50.20
58295;BME280;45705;55.592;37.460;2023-08-07T08:55:50;98901.16;;;27.42;50.50
58295;BME280;45705;55.592;37.460;2023-08-07T08:58:17;98887.53;;;27.44;49.92
58295;BME280;45705;55.592;37.460;2023-08-07T09:00:45;98876.38;;;27.44;50.68
58295;BME280;45705;55.592;37.460;2023-08-07T09:03:11;98879.81;;;27.32;50.27
58295;BME280;45705;55.592;37.460;2023-08-07T09:05:37;98874.59;;;27.34;50.33
58295;BME280;45705;55.592;37.460;2023-08-07T09:08:05;98868.88;;;27.41;50.52
58295;BME280;45705;55.592;37.460;2023-08-07T09:10:32;98866.50;;;27.60;51.25
58295;BME280;45705;55.592;37.460;2023-08-07T09:13:03;98881.38;;;27.73;50.46
58295;BME280;45705;55.592;37.460;2023-08-07T09:15:32;98868.81;;;27.81;50.37
58295;BME280;45705;55.592;37.460;2023-08-07T09:17:58;98859.81;;;27.94;50.01
58295;BME280;45705;55.592;37.460;2023-08-07T09:20:25;98856.13;;;27.97;50.54
58295;BME280;45705;55.592;37.460;2023-08-07T09:22:51;98853.69;;;27.99;50.40
58295;BME280;45705;55.592;37.460;2023-08-07T09:25:28;98866.75;;;27.85;49.15
58295;BME280;45705;55.592;37.460;2023-08-07T09:27:55;98855.50;;;27.89;49.41
58295;BME280;45705;55.592;37.460;2023-08-07T09:30:21;98860.00;;;28.03;49.33
58295;BME280;45705;55.592;37.460;2023-08-07T09:32:51;98856.22;;;27.93;48.80
58295;BME280;45705;55.592;37.460;2023-08-07T09:35:20;98850.97;;;27.95;48.37
58295;BME280;45705;55.592;37.460;2023-08-07T09:37:46;98849.69;;;28.00;48.38
58295;BME280;45705;55.592;37.460;2023-08-07T09:40:12;98849.72;;;28.16;48.77
58295;BME280;45705;55.592;37.460;2023-08-07T09:42:41;98849.00;;;28.12;47.92
58295;BME280;45705;55.592;37.460;2023-08-07T09:45:23;98832.41;;;28.05;47.09
58295;BME280;45705;55.592;37.460;2023-08-07T09:48:05;98856.63;;;28.12;47.58
58295;BME280;45705;55.592;37.460;2023-08-07T09:50:34;98845.50;;;28.08;48.48
58295;BME280;45705;55.592;37.460;2023-08-07T09:52:59;98853.91;;;28.24;48.36
58295;BME280;45705;55.592;37.460;2023-08-07T09:55:26;98833.97;;;28.22;47.43
58295;BME280;45705;55.592;37.460;2023-08-07T09:57:52;98830.84;;;28.20;47.61
58295;BME280;45705;55.592;37.460;2023-08-07T10:00:19;98836.34;;;28.24;46.60
58295;BME280;45705;55.592;37.460;2023-08-07T10:02:49;98814.59;;;28.15;46.42
58295;BME280;45705;55.592;37.460;2023-08-07T10:05:16;98824.22;;;28.31;46.78
58295;BME280;45705;55.592;37.460;2023-08-07T10:07:43;98810.94;;;28.51;46.69
58295;BME280;45705;55.592;37.460;2023-08-07T10:10:10;98808.50;;;28.53;46.70
58295;BME280;45705;55.592;37.460;2023-08-07T10:12:37;98798.88;;;28.54;47.73
58295;BME280;45705;55.592;37.460;2023-08-07T10:15:04;98801.41;;;28.48;47.57
58295;BME280;45705;55.592;37.460;2023-08-07T10:17:33;98821.19;;;28.58;47.42
58295;BME280;45705;55.592;37.460;2023-08-07T10:19:59;98811.28;;;28.20;47.21
58295;BME280;45705;55.592;37.460;2023-08-07T10:22:27;98801.13;;;28.26;47.24
58295;BME280;45705;55.592;37.460;2023-08-07T10:24:57;98820.28;;;28.28;47.09
58295;BME280;45705;55.592;37.460;2023-08-07T10:27:25;98798.34;;;28.43;47.87
58295;BME280;45705;55.592;37.460;2023-08-07T10:29:53;98808.13;;;28.35;47.09
58295;BME280;45705;55.592;37.460;2023-08-07T10:32:21;98781.03;;;28.32;47.79
58295;BME280;45705;55.592;37.460;2023-08-07T10:34:52;98801.81;;;28.47;48.08
58295;BME280;45705;55.592;37.460;2023-08-07T10:37:40;98796.94;;;28.35;47.85
58295;BME280;45705;55.592;37.460;2023-08-07T10:40:08;98808.41;;;28.40;47.10
58295;BME280;45705;55.592;37.460;2023-08-07T10:42:59;98783.66;;;28.39;47.57
58295;BME280;45705;55.592;37.460;2023-08-07T10:45:27;98771.44;;;28.33;46.67
58295;BME280;45705;55.592;37.460;2023-08-07T10:48:06;98782.97;;;28.51;46.98
58295;BME280;45705;55.592;37.460;2023-08-07T10:53:45;98776.47;;;28.71;47.39
58295;BME280;45705;55.592;37.460;2023-08-07T10:58:41;98769.06;;;28.64;47.70
58295;BME280;45705;55.592;37.460;2023-08-07T11:03:57;98745.91;;;28.63;47.51
58295;BME280;45705;55.592;37.460;2023-08-07T11:06:31;98742.38;;;28.76;48.31
58295;BME280;45705;55.592;37.460;2023-08-07T11:09:02;98755.00;;;28.51;47.26
58295;BME280;45705;55.592;37.460;2023-08-07T11:11:38;98749.13;;;28.62;48.11
58295;BME280;45705;55.592;37.460;2023-08-07T11:14:11;98762.38;;;28.74;47.28
58295;BME280;45705;55.592;37.460;2023-08-07T11:16:38;98743.13;;;28.76;47.53
58295;BME280;45705;55.592;37.460;2023-08-07T11:19:04;98755.91;;;28.77;47.94
58295;BME280;45705;55.592;37.460;2023-08-07T11:21:31;98741.25;;;28.73;47.23
58295;BME280;45705;55.592;37.460;2023-08-07T11:23:58;98732.63;;;28.80;47.93
58295;BME280;45705;55.592;37.460;2023-08-07T11:26:24;98757.38;;;28.82;47.23
58295;BME280;45705;55.592;37.460;2023-08-07T11:31:37;98746.38;;;28.75;47.10
58295;BME280;45705;55.592;37.460;2023-08-07T11:34:03;98744.25;;;28.79;48.15
58295;BME280;45705;55.592;37.460;2023-08-07T11:36:29;98734.22;;;28.81;47.52
58295;BME280;45705;55.592;37.460;2023-08-07T11:38:55;98718.00;;;28.89;48.79
58295;BME280;45705;55.592;37.460;2023-08-07T11:41:21;98737.16;;;28.91;48.06
58295;BME280;45705;55.592;37.460;2023-08-07T11:43:47;98749.72;;;28.70;47.46
58295;BME280;45705;55.592;37.460;2023-08-07T11:46:14;98744.50;;;28.84;47.25
58295;BME280;45705;55.592;37.460;2023-08-07T11:48:41;98736.00;;;28.88;47.44
58295;BME280;45705;55.592;37.460;2023-08-07T11:51:08;98708.13;;;28.84;47.44
58295;BME280;45705;55.592;37.460;2023-08-07T11:53:35;98719.78;;;28.83;47.30
58295;BME280;45705;55.592;37.460;2023-08-07T11:56:07;98724.66;;;28.79;47.19
58295;BME280;45705;55.592;37.460;2023-08-07T11:58:34;98730.25;;;28.66;47.56
58295;BME280;45705;55.592;37.460;2023-08-07T12:01:09;98709.13;;;28.78;47.87
58295;BME280;45705;55.592;37.460;2023-08-07T12:03:36;98700.06;;;28.74;47.20
58295;BME280;45705;55.592;37.460;2023-08-07T12:06:05;98693.84;;;28.95;48.47
58295;BME280;45705;55.592;37.460;2023-08-07T12:08:36;98701.13;;;29.05;47.97
58295;BME280;45705;55.592;37.460;2023-08-07T12:11:07;98691.28;;;29.01;48.22
58295;BME280;45705;55.592;37.460;2023-08-07T12:13:43;98685.81;;;29.10;48.17
58295;BME280;45705;55.592;37.460;2023-08-07T12:16:11;98689.34;;;28.98;47.62
58295;BME280;45705;55.592;37.460;2023-08-07T12:18:46;98683.63;;;28.89;48.30
58295;BME280;45705;55.592;37.460;2023-08-07T12:21:20;98669.53;;;28.92;48.15
58295;BME280;45705;55.592;37.460;2023-08-07T12:23:48;98676.94;;;29.12;48.33
58295;BME280;45705;55.592;37.460;2023-08-07T12:26:15;98696.31;;;28.93;48.45
58295;BME280;45705;55.592;37.460;2023-08-07T12:28:41;98670.34;;;29.05;49.16
58295;BME280;45705;55.592;37.460;2023-08-07T12:31:06;98689.78;;;28.96;48.08
58295;BME280;45705;55.592;37.460;2023-08-07T12:33:44;98667.41;;;28.96;48.47
58295;BME280;45705;55.592;37.460;2023-08-07T12:36:10;98681.75;;;28.98;47.84
58295;BME280;45705;55.592;37.460;2023-08-07T12:38:36;98673.81;;;28.97;48.00
58295;BME280;45705;55.592;37.460;2023-08-07T12:41:02;98666.97;;;28.98;48.22
58295;BME280;45705;55.592;37.460;2023-08-07T12:43:29;98677.03;;;28.95;48.01
58295;BME280;45705;55.592;37.460;2023-08-07T12:45:54;98659.13;;;29.05;48.47
58295;BME280;45705;55.592;37.460;2023-08-07T12:48:20;98694.38;;;28.90;48.14
58295;BME280;45705;55.592;37.460;2023-08-07T12:50:46;98657.13;;;28.93;48.95
58295;BME280;45705;55.592;37.460;2023-08-07T12:53:12;98653.66;;;28.89;48.15
58295;BME280;45705;55.592;37.460;2023-08-07T12:55:37;98639.66;;;28.89;47.76
58295;BME280;45705;55.592;37.460;2023-08-07T12:58:03;98649.72;;;28.99;49.63
58295;BME280;45705;55.592;37.460;2023-08-07T13:00:29;98647.94;;;29.05;49.12
58295;BME280;45705;55.592;37.460;2023-08-07T13:02:55;98633.06;;;29.09;49.21
58295;BME280;45705;55.592;37.460;2023-08-07T13:05:22;98637.19;;;29.04;49.34